createdAt,value
2023-04-09T00:02:35.834Z,100877.16
2023-04-09T00:05:40.330Z,100861.28
2023-04-09T00:08:43.103Z,100870.41
2023-04-09T00:11:46.208Z,100862.50
2023-04-09T00:14:48.832Z,100866.00
2023-04-09T00:17:52.427Z,100866.47
2023-04-09T00:20:55.336Z,100877.25
2023-04-09T00:23:58.452Z,100871.16
2023-04-09T00:27:01.109Z,100867.50
2023-04-09T00:30:04.477Z,100866.88
2023-04-09T00:33:07.512Z,100860.63
2023-04-09T00:36:10.408Z,100863.53
2023-04-09T00:39:13.132Z,100862.84
2023-04-09T00:42:16.587Z,100867.03
2023-04-09T00:45:19.212Z,100860.72
2023-04-09T00:48:22.808Z,100857.50
2023-04-09T00:51:26.457Z,100863.06
2023-04-09T00:54:29.424Z,100864.69
2023-04-09T00:57:32.545Z,100860.28
2023-04-09T01:00:36.150Z,100860.66
2023-04-09T01:03:39.348Z,100854.63
2023-04-09T01:06:55.977Z,100859.91
2023-04-09T01:10:24.332Z,100861.75
2023-04-09T01:13:55.438Z,100846.13
2023-04-09T01:17:06.153Z,100849.59
2023-04-09T01:20:14.484Z,100846.97
2023-04-09T01:23:37.540Z,100854.88
2023-04-09T01:27:05.440Z,100853.09
2023-04-09T01:30:10.649Z,100863.63
2023-04-09T01:33:16.683Z,100855.09
2023-04-09T01:36:20.860Z,100860.44
2023-04-09T01:39:24.117Z,100858.34
2023-04-09T01:42:29.110Z,100859.53
2023-04-09T01:45:34.017Z,100858.50
2023-04-09T01:48:38.105Z,100866.72
2023-04-09T01:51:41.651Z,100865.56
2023-04-09T01:54:44.325Z,100869.97
2023-04-09T01:57:47.282Z,100861.91
2023-04-09T02:00:54.729Z,100865.34
2023-04-09T02:04:02.616Z,100862.22
2023-04-09T02:07:11.311Z,100856.44
2023-04-09T02:10:17.366Z,100865.03
2023-04-09T02:13:21.375Z,100861.66
2023-04-09T02:16:25.857Z,100863.06
2023-04-09T02:19:46.093Z,100862.19
2023-04-09T02:22:49.040Z,100859.12
2023-04-09T02:25:53.689Z,100856.31
2023-04-09T02:28:56.425Z,100852.91
2023-04-09T02:31:59.607Z,100850.41
2023-04-09T02:35:02.295Z,100856.47
2023-04-09T02:38:05.327Z,100856.63
2023-04-09T02:41:08.346Z,100859.28
2023-04-09T02:44:11.966Z,100852.19
2023-04-09T02:47:14.545Z,100845.31
2023-04-09T02:50:19.092Z,100847.34
2023-04-09T02:53:22.040Z,100844.69
2023-04-09T02:56:24.996Z,100844.84
2023-04-09T02:59:27.682Z,100837.09
2023-04-09T03:02:31.156Z,100841.91
2023-04-09T03:05:33.953Z,100841.38
2023-04-09T03:08:37.122Z,100843.28
2023-04-09T03:11:46.848Z,100849.56
2023-04-09T03:14:50.189Z,100851.56
2023-04-09T03:17:53.099Z,100845.47
2023-04-09T03:20:57.480Z,100841.00
2023-04-09T03:24:02.273Z,100857.19
2023-04-09T03:27:05.504Z,100848.09
2023-04-09T03:30:08.712Z,100840.78
2023-04-09T03:33:12.206Z,100848.69
2023-04-09T03:36:18.015Z,100843.94
2023-04-09T03:39:21.744Z,100849.56
2023-04-09T03:42:24.823Z,100847.37
2023-04-09T03:45:29.404Z,100852.88
2023-04-09T03:48:42.639Z,100849.00
2023-04-09T03:51:45.952Z,100843.84
2023-04-09T03:54:49.099Z,100850.13
2023-04-09T03:57:52.344Z,100850.72
2023-04-09T04:00:56.024Z,100847.31
2023-04-09T04:03:59.796Z,100856.22
2023-04-09T04:07:04.143Z,100854.88
2023-04-09T04:10:07.786Z,100856.63
2023-04-09T04:13:11.161Z,100851.47
2023-04-09T04:16:14.438Z,100849.28
2023-04-09T04:19:17.575Z,100857.53
2023-04-09T04:22:21.027Z,100858.38
2023-04-09T04:25:25.982Z,100864.41
2023-04-09T04:28:30.242Z,100874.44
2023-04-09T04:31:33.329Z,100869.19
2023-04-09T04:34:36.997Z,100881.19
2023-04-09T04:37:43.566Z,100870.19
2023-04-09T04:40:57.880Z,100877.47
2023-04-09T04:44:00.986Z,100876.81
2023-04-09T04:47:03.909Z,100878.47
2023-04-09T04:50:07.669Z,100886.38
2023-04-09T04:53:16.269Z,100882.50
2023-04-09T04:56:19.288Z,100874.22
2023-04-09T04:59:22.936Z,100888.22
2023-04-09T05:02:29.636Z,100887.09
2023-04-09T05:05:36.068Z,100885.56
2023-04-09T05:08:38.858Z,100888.56
2023-04-09T05:11:41.849Z,100894.22
2023-04-09T05:14:45.010Z,100889.47
2023-04-09T05:17:48.206Z,100887.44
2023-04-09T05:20:51.668Z,100888.56
2023-04-09T05:23:54.801Z,100891.56
2023-04-09T05:26:57.710Z,100894.56
2023-04-09T05:30:01.416Z,100894.13
2023-04-09T05:33:06.511Z,100897.50
2023-04-09T05:36:15.941Z,100900.94
2023-04-09T05:39:18.694Z,100894.94
2023-04-09T05:42:22.323Z,100904.75
2023-04-09T05:45:25.911Z,100904.81
2023-04-09T05:48:28.956Z,100906.94
2023-04-09T05:51:32.767Z,100911.34
2023-04-09T05:54:36.553Z,100911.03
2023-04-09T05:57:39.665Z,100906.56
2023-04-09T06:00:42.848Z,100915.84
2023-04-09T06:03:46.197Z,100917.81
2023-04-09T06:06:49.150Z,100933.62
2023-04-09T06:09:52.151Z,100927.16
2023-04-09T06:12:55.109Z,100922.72
2023-04-09T06:15:58.167Z,100934.91
2023-04-09T06:19:00.816Z,100926.09
2023-04-09T06:22:05.742Z,100928.66
2023-04-09T06:25:08.651Z,100923.22
2023-04-09T06:28:11.672Z,100924.97
2023-04-09T06:31:14.613Z,100914.63
2023-04-09T06:34:17.644Z,100921.25
2023-04-09T06:37:20.389Z,100912.94
2023-04-09T06:40:23.605Z,100921.37
2023-04-09T06:43:26.240Z,100925.84
2023-04-09T06:46:29.559Z,100929.66
2023-04-09T06:49:32.207Z,100925.72
2023-04-09T06:52:35.421Z,100927.00
2023-04-09T06:55:37.997Z,100930.16
2023-04-09T06:58:41.034Z,100934.66
2023-04-09T07:01:43.895Z,100936.19
2023-04-09T07:04:47.851Z,100933.78
2023-04-09T07:07:50.729Z,100940.72
2023-04-09T07:10:53.703Z,100940.16
2023-04-09T07:13:56.910Z,100939.84
2023-04-09T07:16:59.993Z,100947.12
2023-04-09T07:20:02.720Z,100951.84
2023-04-09T07:23:05.866Z,100951.22
2023-04-09T07:26:08.742Z,100960.75
2023-04-09T07:29:11.940Z,100952.00
2023-04-09T07:32:15.988Z,100955.69
2023-04-09T07:35:18.965Z,100948.87
2023-04-09T07:38:21.664Z,100958.22
2023-04-09T07:41:24.558Z,100952.47
2023-04-09T07:44:28.434Z,100957.81
2023-04-09T07:47:31.979Z,100951.19
2023-04-09T07:50:36.395Z,100963.19
2023-04-09T07:53:39.555Z,100957.44
2023-04-09T07:56:42.135Z,100966.53
2023-04-09T07:59:45.228Z,100953.47
2023-04-09T08:02:48.425Z,100962.31
2023-04-09T08:05:51.626Z,100960.47
2023-04-09T08:08:54.587Z,100961.69
2023-04-09T08:11:57.836Z,100954.78
2023-04-09T08:15:03.598Z,100963.94
2023-04-09T08:18:07.237Z,100961.63
2023-04-09T08:21:10.587Z,100966.59
2023-04-09T08:24:13.480Z,100971.75
2023-04-09T08:27:16.142Z,100972.22
2023-04-09T08:30:19.353Z,100973.78
2023-04-09T08:33:22.262Z,100974.28
2023-04-09T08:36:26.427Z,100983.94
2023-04-09T08:39:29.149Z,100982.44
2023-04-09T08:42:35.633Z,100987.53
2023-04-09T08:45:41.375Z,100992.84
2023-04-09T08:48:48.569Z,101002.59
2023-04-09T08:51:52.171Z,101000.94
2023-04-09T08:54:55.524Z,101013.88
2023-04-09T08:57:58.558Z,101006.13
2023-04-09T09:01:01.920Z,101010.75
2023-04-09T09:04:06.703Z,101009.28
2023-04-09T09:07:09.786Z,101022.94
2023-04-09T09:10:12.459Z,101023.03
2023-04-09T09:13:22.427Z,101016.28
2023-04-09T09:16:25.162Z,101017.88
2023-04-09T09:19:30.618Z,101029.69
2023-04-09T09:22:54.824Z,101015.19
2023-04-09T09:25:58.487Z,101019.87
2023-04-09T09:29:05.763Z,101028.06
2023-04-09T09:32:13.731Z,101016.47
2023-04-09T09:35:16.443Z,101010.84
2023-04-09T09:38:20.223Z,101007.53
2023-04-09T09:41:23.876Z,101018.50
2023-04-09T09:44:33.643Z,101004.75
2023-04-09T09:47:37.582Z,101012.53
2023-04-09T09:50:42.002Z,101009.13
2023-04-09T09:53:47.140Z,101008.12
2023-04-09T09:56:52.936Z,101004.00
2023-04-09T10:00:04.294Z,101001.66
2023-04-09T10:03:23.506Z,101000.34
2023-04-09T10:06:27.743Z,101008.59
2023-04-09T10:09:31.411Z,101001.84
2023-04-09T10:12:34.791Z,101004.31
2023-04-09T10:15:38.393Z,101004.44
2023-04-09T10:18:42.727Z,101002.75
2023-04-09T10:22:01.987Z,100995.91
2023-04-09T10:25:06.494Z,101004.50
2023-04-09T10:28:17.912Z,101002.44
2023-04-09T10:31:21.048Z,101004.75
2023-04-09T10:34:28.018Z,100998.59
2023-04-09T10:37:31.939Z,100999.34
2023-04-09T10:40:34.834Z,100995.50
2023-04-09T10:43:37.954Z,100990.28
2023-04-09T10:46:42.283Z,100998.75
2023-04-09T10:49:45.249Z,100992.94
2023-04-09T10:52:53.541Z,100990.66
2023-04-09T10:55:56.590Z,100995.88
2023-04-09T10:58:59.420Z,101001.16
2023-04-09T18:25:34.936Z,100926.56
2023-04-09T18:28:39.518Z,100932.69
2023-04-09T18:31:42.546Z,100929.28
2023-04-09T18:34:47.137Z,100942.53
2023-04-09T18:37:49.850Z,100943.06
2023-04-09T18:40:52.809Z,100947.75
2023-04-09T18:43:55.605Z,100951.75
2023-04-09T18:46:59.688Z,100945.78
2023-04-09T18:50:02.475Z,100951.00
2023-04-09T18:53:06.674Z,100950.91
2023-04-09T18:56:09.497Z,100945.22
2023-04-09T18:59:12.844Z,100957.06
2023-04-09T19:02:15.818Z,100953.78
2023-04-09T19:05:19.053Z,100951.19
2023-04-09T19:08:22.417Z,100951.47
2023-04-09T19:11:26.142Z,100947.38
2023-04-09T19:14:29.092Z,100948.09
2023-04-09T19:17:32.270Z,100955.78
2023-04-09T19:20:34.969Z,100961.19
2023-04-09T19:23:38.141Z,100966.28
2023-04-09T19:26:41.080Z,100962.87
2023-04-09T19:29:44.869Z,100961.88
2023-04-09T19:32:47.627Z,100962.81
2023-04-09T19:35:52.423Z,100958.63
2023-04-09T19:38:55.819Z,100959.53
2023-04-09T19:41:58.908Z,100957.88
2023-04-09T19:45:02.017Z,100964.12
2023-04-09T19:48:08.758Z,100965.75
2023-04-09T19:51:18.142Z,100967.56
2023-04-09T19:54:21.814Z,100969.50
2023-04-09T19:57:26.540Z,100970.34
2023-04-09T20:00:29.758Z,100970.69
2023-04-09T20:03:33.445Z,100970.97
2023-04-09T20:06:36.080Z,100973.69
2023-04-09T20:09:42.522Z,100976.22
2023-04-09T20:12:50.091Z,100973.69
2023-04-09T20:15:52.976Z,100969.56
2023-04-09T20:18:55.940Z,100973.44
2023-04-09T20:22:00.337Z,100971.22
2023-04-09T20:25:02.955Z,100969.03
